Time;durP1;ratioP1;P1;durP2;ratioP2;P2;SDS_P1;SDS_P2;PMS_P1;PMS_P2;Temp;Humidity;BMP_temperature;BMP_pressure;BME280_temperature;BME280_humidity;BME280_pressure;Samples;Min_cycle;Max_cycle;Signal;HPM_P1;HPM_P2
2024/01/27 00:01:11;;;;;;;8.25;0.88;;;;;;;;;;5015626;28;20025;-56
2024/01/27 00:03:36;;;;;;;7.60;0.85;;;;;;;;;;5032511;28;20021;-56
2024/01/27 00:06:02;;;;;;;5.72;0.85;;;;;;;;;;5019171;28;20030;-57
2024/01/27 00:08:27;;;;;;;9.00;0.77;;;;;;;;;;5021989;28;20025;-56
2024/01/27 00:10:52;;;;;;;3.73;0.67;;;;;;;;;;5032957;28;20029;-56
2024/01/27 00:13:17;;;;;;;5.28;0.60;;;;;;;;;;5023657;28;20028;-57
2024/01/27 00:15:42;;;;;;;9.27;0.90;;;;;;;;;;5020994;28;20048;-57
2024/01/27 00:18:08;;;;;;;6.90;0.83;;;;;;;;;;5031611;28;20042;-57
2024/01/27 00:20:33;;;;;;;6.32;1.02;;;;;;;;;;5033012;28;20387;-56
2024/01/27 00:22:58;;;;;;;5.23;1.00;;;;;;;;;;5023523;28;20424;-57
2024/01/27 00:25:23;;;;;;;4.50;0.70;;;;;;;;;;5024385;28;20456;-56
2024/01/27 00:27:48;;;;;;;8.37;1.00;;;;;;;;;;5033459;28;20024;-57
2024/01/27 00:30:13;;;;;;;6.70;1.00;;;;;;;;;;5031524;28;20013;-56
2024/01/27 00:32:39;;;;;;;7.40;1.10;;;;;;;;;;5032476;28;20032;-57
2024/01/27 00:35:04;;;;;;;6.78;0.80;;;;;;;;;;5032243;28;20017;-56
2024/01/27 00:37:29;;;;;;;7.32;1.08;;;;;;;;;;5023442;28;20033;-57
2024/01/27 00:39:54;;;;;;;9.53;1.10;;;;;;;;;;5029682;28;20021;-57
2024/01/27 00:42:23;;;;;;;8.80;1.20;;;;;;;;;;5028804;28;20079;-57
2024/01/27 00:44:49;;;;;;;5.50;1.00;;;;;;;;;;5023507;28;20040;-57
2024/01/27 00:47:14;;;;;;;7.47;1.07;;;;;;;;;;5030396;28;20021;-57
2024/01/27 00:49:39;;;;;;;6.63;1.00;;;;;;;;;;5026267;28;20547;-56
2024/01/27 00:52:04;;;;;;;4.63;0.90;;;;;;;;;;5018438;28;20124;-57
2024/01/27 00:54:29;;;;;;;8.38;1.00;;;;;;;;;;5024407;28;20026;-55
2024/01/27 00:56:55;;;;;;;6.60;0.90;;;;;;;;;;5012999;28;20028;-57
2024/01/27 00:59:20;;;;;;;11.02;0.90;;;;;;;;;;5018113;28;20543;-57
2024/01/27 01:01:45;;;;;;;4.85;0.88;;;;;;;;;;5024292;28;20033;-57
2024/01/27 01:04:10;;;;;;;4.35;0.80;;;;;;;;;;5032639;28;20061;-57
2024/01/27 01:06:38;;;;;;;5.93;0.87;;;;;;;;;;5014185;28;20048;-56
2024/01/27 01:09:04;;;;;;;5.75;0.75;;;;;;;;;;5021505;28;20080;-55
2024/01/27 01:11:29;;;;;;;4.97;0.68;;;;;;;;;;5027871;28;20405;-56
2024/01/27 01:13:54;;;;;;;8.02;0.82;;;;;;;;;;5031218;28;20018;-57
2024/01/27 01:16:19;;;;;;;7.65;0.95;;;;;;;;;;5030665;28;20021;-57
2024/01/27 01:18:44;;;;;;;3.60;0.80;;;;;;;;;;5030855;28;20064;-56
2024/01/27 01:21:10;;;;;;;5.03;1.02;;;;;;;;;;5030010;28;20040;-57
2024/01/27 01:23:35;;;;;;;7.05;1.30;;;;;;;;;;5031116;28;20021;-56
2024/01/27 01:26:00;;;;;;;5.07;0.67;;;;;;;;;;5019976;28;20034;-56
2024/01/27 01:28:25;;;;;;;7.93;0.90;;;;;;;;;;5012452;28;20018;-57
2024/01/27 01:30:50;;;;;;;5.95;1.13;;;;;;;;;;5030873;28;20036;-57
2024/01/27 01:33:16;;;;;;;3.50;0.60;;;;;;;;;;5030011;28;20017;-56
2024/01/27 01:35:41;;;;;;;7.13;0.90;;;;;;;;;;5030955;28;20039;-56
2024/01/27 01:38:06;;;;;;;6.23;0.90;;;;;;;;;;5031920;28;20076;-58
2024/01/27 01:40:31;;;;;;;6.77;1.00;;;;;;;;;;5030860;28;20560;-56
2024/01/27 01:42:58;;;;;;;8.68;1.05;;;;;;;;;;5030393;28;20025;-57
2024/01/27 01:45:23;;;;;;;5.25;0.90;;;;;;;;;;5030645;28;20103;-57
2024/01/27 01:47:48;;;;;;;7.68;1.20;;;;;;;;;;5018381;28;20114;-57
2024/01/27 01:50:13;;;;;;;8.83;0.80;;;;;;;;;;5026223;28;20026;-56
2024/01/27 01:52:39;;;;;;;6.45;0.80;;;;;;;;;;5027478;28;20490;-56
2024/01/27 01:55:05;;;;;;;6.78;0.90;;;;;;;;;;5031051;28;20021;-55
2024/01/27 01:57:30;;;;;;;7.75;1.05;;;;;;;;;;5031107;28;20116;-57
2024/01/27 01:59:55;;;;;;;5.70;0.93;;;;;;;;;;5031608;28;20099;-56
2024/01/27 02:02:21;;;;;;;11.50;1.13;;;;;;;;;;5012450;28;20022;-56
2024/01/27 02:04:46;;;;;;;3.42;0.60;;;;;;;;;;5015686;28;20382;-57
2024/01/27 02:07:11;;;;;;;7.00;0.90;;;;;;;;;;5030646;28;20040;-56
2024/01/27 02:09:36;;;;;;;6.10;0.70;;;;;;;;;;5024332;28;20190;-54
2024/01/27 02:12:02;;;;;;;8.60;1.27;;;;;;;;;;5031286;28;20092;-57
2024/01/27 02:14:27;;;;;;;5.20;1.00;;;;;;;;;;5019266;28;20037;-57
2024/01/27 02:16:54;;;;;;;6.60;0.85;;;;;;;;;;5011412;28;20383;-56
2024/01/27 02:19:19;;;;;;;5.25;0.75;;;;;;;;;;5024152;28;20033;-57
2024/01/27 02:21:44;;;;;;;9.50;1.10;;;;;;;;;;5025218;28;20022;-57
2024/01/27 02:24:10;;;;;;;9.63;1.33;;;;;;;;;;5040983;28;20133;-57
2024/01/27 02:26:35;;;;;;;8.73;1.02;;;;;;;;;;5030581;28;20430;-56
2024/01/27 02:29:00;;;;;;;5.70;0.80;;;;;;;;;;5027209;28;20020;-56
2024/01/27 02:31:25;;;;;;;8.95;1.00;;;;;;;;;;5012219;28;20080;-56
2024/01/27 02:33:50;;;;;;;8.27;1.45;;;;;;;;;;5018700;28;20033;-58
2024/01/27 02:36:15;;;;;;;10.13;1.30;;;;;;;;;;5030655;28;20021;-58
2024/01/27 02:38:41;;;;;;;11.02;1.05;;;;;;;;;;5016381;28;20026;-56
2024/01/27 02:41:06;;;;;;;4.78;0.80;;;;;;;;;;5020210;28;20018;-56
2024/01/27 02:43:31;;;;;;;9.13;1.33;;;;;;;;;;5029561;28;20092;-56
2024/01/27 02:45:56;;;;;;;6.93;0.93;;;;;;;;;;5029201;28;20027;-57
2024/01/27 02:48:22;;;;;;;5.22;0.90;;;;;;;;;;5029569;28;20026;-56
2024/01/27 02:50:48;;;;;;;6.72;1.15;;;;;;;;;;5022550;28;20413;-56
2024/01/27 02:53:13;;;;;;;8.30;1.40;;;;;;;;;;5028853;28;20071;-57
2024/01/27 02:55:38;;;;;;;6.90;1.20;;;;;;;;;;5029648;28;20030;-56
2024/01/27 02:58:03;;;;;;;8.20;0.85;;;;;;;;;;5028420;28;20021;-57
2024/01/27 03:00:28;;;;;;;8.93;1.20;;;;;;;;;;5023247;28;20076;-60
2024/01/27 03:02:54;;;;;;;7.97;1.27;;;;;;;;;;5031359;28;20405;-56
2024/01/27 03:05:19;;;;;;;8.70;0.95;;;;;;;;;;5017706;28;20022;-56
2024/01/27 03:07:44;;;;;;;8.68;1.02;;;;;;;;;;5015295;28;20055;-56
2024/01/27 03:10:10;;;;;;;9.85;1.17;;;;;;;;;;5023009;28;20065;-56
2024/01/27 03:12:36;;;;;;;8.45;1.73;;;;;;;;;;5024727;28;20385;-56
2024/01/27 03:15:01;;;;;;;8.10;1.40;;;;;;;;;;5032846;28;20083;-57
2024/01/27 03:17:26;;;;;;;8.70;1.10;;;;;;;;;;5031156;28;20041;-57
2024/01/27 03:19:51;;;;;;;7.37;1.47;;;;;;;;;;5034601;28;20017;-56
2024/01/27 03:22:16;;;;;;;10.40;1.20;;;;;;;;;;5032432;28;20120;-55
2024/01/27 03:24:41;;;;;;;5.80;1.13;;;;;;;;;;5014707;28;20028;-57
2024/01/27 03:27:06;;;;;;;7.40;0.90;;;;;;;;;;5033154;28;20230;-56
2024/01/27 03:29:32;;;;;;;12.10;1.20;;;;;;;;;;5022982;28;20022;-55
2024/01/27 03:31:57;;;;;;;9.00;0.95;;;;;;;;;;5030480;28;20032;-57
2024/01/27 03:34:24;;;;;;;7.50;0.90;;;;;;;;;;5029807;28;20516;-56
2024/01/27 03:36:50;;;;;;;11.02;1.35;;;;;;;;;;5033433;28;20481;-57
2024/01/27 03:39:15;;;;;;;7.70;1.30;;;;;;;;;;5022789;28;20040;-56
2024/01/27 03:41:40;;;;;;;9.60;0.97;;;;;;;;;;5029260;28;20084;-56
2024/01/27 03:44:05;;;;;;;9.25;1.55;;;;;;;;;;5033361;28;20108;-56
2024/01/27 03:46:30;;;;;;;7.80;1.33;;;;;;;;;;5023032;28;20057;-56
2024/01/27 03:48:56;;;;;;;8.95;0.90;;;;;;;;;;5028674;28;20032;-56
2024/01/27 03:51:22;;;;;;;9.20;1.55;;;;;;;;;;5019167;28;20053;-57
2024/01/27 03:53:47;;;;;;;7.75;0.90;;;;;;;;;;5029677;28;20029;-56
2024/01/27 03:56:12;;;;;;;6.32;0.90;;;;;;;;;;5030687;28;20109;-57
2024/01/27 03:58:38;;;;;;;6.10;0.88;;;;;;;;;;5021032;28;20025;-56
2024/01/27 04:01:03;;;;;;;7.70;0.93;;;;;;;;;;5031095;28;20026;-56
2024/01/27 04:03:29;;;;;;;11.02;1.20;;;;;;;;;;5032374;28;20028;-57
2024/01/27 04:05:54;;;;;;;9.32;1.00;;;;;;;;;;5032657;28;20017;-57
2024/01/27 04:08:19;;;;;;;10.07;1.33;;;;;;;;;;5031875;28;20018;-56
2024/01/27 04:10:44;;;;;;;9.13;1.00;;;;;;;;;;5020467;28;21644;-57
2024/01/27 04:13:09;;;;;;;8.83;0.97;;;;;;;;;;5030304;28;20040;-58
2024/01/27 04:15:38;;;;;;;10.07;1.40;;;;;;;;;;5032292;28;20017;-55
2024/01/27 04:18:08;;;;;;;8.10;1.00;;;;;;;;;;5027778;28;20018;-57
2024/01/27 04:20:33;;;;;;;7.45;1.20;;;;;;;;;;5032196;28;20049;-57
2024/01/27 04:22:58;;;;;;;10.83;1.27;;;;;;;;;;5044114;28;20021;-55
2024/01/27 04:25:23;;;;;;;11.90;1.25;;;;;;;;;;5028531;28;21791;-57
2024/01/27 04:27:48;;;;;;;8.47;0.90;;;;;;;;;;5035744;28;20032;-56
2024/01/27 04:30:13;;;;;;;12.82;1.30;;;;;;;;;;5032134;28;20028;-56
2024/01/27 04:32:38;;;;;;;8.83;1.00;;;;;;;;;;5032190;28;20021;-57
2024/01/27 04:35:04;;;;;;;8.87;1.37;;;;;;;;;;5028089;28;20041;-56
2024/01/27 04:37:29;;;;;;;14.40;1.50;;;;;;;;;;5017208;28;20041;-55
2024/01/27 04:39:54;;;;;;;10.93;1.00;;;;;;;;;;5022158;28;20918;-57
2024/01/27 04:42:20;;;;;;;12.38;1.50;;;;;;;;;;5030961;28;20389;-56
2024/01/27 04:44:45;;;;;;;9.53;1.20;;;;;;;;;;5016913;28;20307;-56
2024/01/27 04:47:10;;;;;;;9.18;1.33;;;;;;;;;;5031996;28;20029;-58
2024/01/27 04:49:35;;;;;;;8.53;1.10;;;;;;;;;;5032986;28;20040;-57
2024/01/27 04:52:00;;;;;;;9.00;0.97;;;;;;;;;;5033649;28;20364;-58
2024/01/27 04:54:26;;;;;;;8.13;1.07;;;;;;;;;;5032255;28;20049;-55
2024/01/27 04:56:51;;;;;;;6.22;1.17;;;;;;;;;;5028529;28;20037;-57
2024/01/27 04:59:16;;;;;;;10.07;1.10;;;;;;;;;;5023851;28;20026;-57
2024/01/27 05:01:44;;;;;;;7.87;1.50;;;;;;;;;;5014073;28;20426;-55
2024/01/27 05:04:09;;;;;;;12.32;1.38;;;;;;;;;;5017361;28;20040;-56
2024/01/27 05:06:34;;;;;;;8.90;1.15;;;;;;;;;;5031345;28;20033;-57
2024/01/27 05:08:59;;;;;;;12.48;1.20;;;;;;;;;;5028120;28;20553;-56
2024/01/27 05:11:25;;;;;;;11.45;1.50;;;;;;;;;;5019464;28;20084;-58
2024/01/27 05:13:50;;;;;;;6.88;1.10;;;;;;;;;;5025434;28;20104;-56
2024/01/27 05:16:15;;;;;;;11.57;1.33;;;;;;;;;;5029450;28;20481;-57
2024/01/27 05:18:41;;;;;;;9.30;1.20;;;;;;;;;;5027505;28;20025;-57
2024/01/27 05:21:06;;;;;;;9.53;1.23;;;;;;;;;;5032077;28;20018;-58
2024/01/27 05:23:31;;;;;;;9.80;1.10;;;;;;;;;;5033075;28;20017;-57
2024/01/27 05:25:56;;;;;;;8.93;1.30;;;;;;;;;;5024660;28;20099;-56
2024/01/27 05:28:21;;;;;;;10.68;1.10;;;;;;;;;;5025584;28;20391;-55
2024/01/27 05:30:46;;;;;;;12.73;1.20;;;;;;;;;;5028537;28;20029;-57
2024/01/27 05:33:12;;;;;;;7.30;1.13;;;;;;;;;;5028237;28;20045;-57
2024/01/27 05:35:37;;;;;;;6.43;0.82;;;;;;;;;;5031242;28;20017;-57
2024/01/27 05:38:02;;;;;;;8.13;0.90;;;;;;;;;;5026626;28;20025;-57
2024/01/27 05:40:27;;;;;;;7.37;0.97;;;;;;;;;;5030252;28;20386;-57
2024/01/27 05:42:52;;;;;;;9.07;0.88;;;;;;;;;;5023926;28;20033;-57
2024/01/27 05:45:17;;;;;;;9.20;1.15;;;;;;;;;;5014769;28;20517;-59
2024/01/27 05:47:43;;;;;;;12.10;1.60;;;;;;;;;;5028442;28;20017;-57
2024/01/27 05:50:08;;;;;;;8.80;1.10;;;;;;;;;;5024521;28;20033;-56
2024/01/27 05:52:34;;;;;;;9.88;1.20;;;;;;;;;;5020981;28;20460;-57
2024/01/27 05:54:59;;;;;;;8.48;0.90;;;;;;;;;;5029897;28;20097;-57
2024/01/27 05:57:24;;;;;;;7.93;1.30;;;;;;;;;;5031042;28;20033;-57
2024/01/27 05:59:49;;;;;;;7.78;0.70;;;;;;;;;;5029067;28;20465;-56
2024/01/27 06:02:17;;;;;;;12.18;1.08;;;;;;;;;;5028422;28;20028;-57
2024/01/27 06:04:42;;;;;;;10.20;1.00;;;;;;;;;;5028534;28;20041;-57
2024/01/27 06:07:07;;;;;;;9.80;1.00;;;;;;;;;;5023951;28;20026;-57
2024/01/27 06:09:33;;;;;;;7.07;0.90;;;;;;;;;;5032151;28;20489;-57
2024/01/27 06:11:59;;;;;;;11.02;1.00;;;;;;;;;;5029315;28;20053;-55
2024/01/27 06:14:24;;;;;;;9.48;1.10;;;;;;;;;;5021519;28;20128;-56
2024/01/27 06:16:51;;;;;;;11.40;1.20;;;;;;;;;;5029541;28;20108;-57
2024/01/27 06:19:16;;;;;;;11.32;1.00;;;;;;;;;;5034453;28;20037;-57
2024/01/27 06:21:41;;;;;;;13.32;1.08;;;;;;;;;;5036198;28;20381;-57
2024/01/27 06:24:06;;;;;;;12.68;1.50;;;;;;;;;;5034216;28;20045;-57
2024/01/27 06:26:31;;;;;;;11.63;1.10;;;;;;;;;;5034948;28;20024;-57
2024/01/27 06:28:56;;;;;;;9.02;1.13;;;;;;;;;;5033895;28;20116;-56
2024/01/27 06:31:22;;;;;;;11.00;1.30;;;;;;;;;;5028856;28;20025;-57
2024/01/27 06:33:47;;;;;;;10.17;1.10;;;;;;;;;;5029432;28;20466;-56
2024/01/27 06:36:12;;;;;;;11.60;1.47;;;;;;;;;;5038111;28;20506;-57
2024/01/27 06:38:37;;;;;;;9.65;1.48;;;;;;;;;;5035056;28;20026;-56
2024/01/27 06:41:03;;;;;;;15.20;1.30;;;;;;;;;;5027566;28;20072;-56
2024/01/27 06:43:28;;;;;;;13.07;1.20;;;;;;;;;;5032340;28;20098;-56
2024/01/27 06:45:54;;;;;;;6.78;0.95;;;;;;;;;;5036910;28;20032;-57
2024/01/27 06:48:19;;;;;;;8.70;1.00;;;;;;;;;;5040172;28;20025;-56
2024/01/27 06:50:45;;;;;;;8.75;1.50;;;;;;;;;;5047244;28;20021;-56
2024/01/27 06:53:10;;;;;;;7.53;1.30;;;;;;;;;;5031908;28;20061;-57
2024/01/27 06:55:35;;;;;;;8.80;1.45;;;;;;;;;;5033674;28;20524;-56
2024/01/27 06:58:00;;;;;;;10.53;1.40;;;;;;;;;;5031143;28;20393;-56
2024/01/27 07:00:25;;;;;;;13.83;2.57;;;;;;;;;;5022607;28;20091;-57
2024/01/27 07:02:50;;;;;;;13.45;1.77;;;;;;;;;;5022856;28;20400;-56
2024/01/27 07:05:16;;;;;;;10.20;1.00;;;;;;;;;;5029552;28;20025;-56
2024/01/27 07:07:41;;;;;;;14.10;1.93;;;;;;;;;;5012564;28;20018;-56
2024/01/27 07:10:09;;;;;;;11.73;1.00;;;;;;;;;;5025039;28;20084;-57
2024/01/27 07:12:34;;;;;;;8.88;1.10;;;;;;;;;;5019451;28;20025;-57
2024/01/27 07:15:00;;;;;;;12.35;1.50;;;;;;;;;;5028571;28;20084;-56
2024/01/27 07:17:26;;;;;;;10.68;1.17;;;;;;;;;;5024972;28;20035;-55
2024/01/27 07:19:51;;;;;;;10.73;1.90;;;;;;;;;;5027896;28;20028;-55
2024/01/27 07:22:16;;;;;;;10.05;1.70;;;;;;;;;;5029862;28;20047;-57
2024/01/27 07:24:41;;;;;;;11.47;1.70;;;;;;;;;;5029499;28;20041;-56
2024/01/27 07:27:06;;;;;;;11.00;1.67;;;;;;;;;;5019187;28;20536;-57
2024/01/27 07:29:32;;;;;;;12.17;1.40;;;;;;;;;;5021983;28;20022;-57
2024/01/27 07:31:57;;;;;;;9.87;1.40;;;;;;;;;;5037587;28;20063;-59
2024/01/27 07:34:22;;;;;;;13.63;1.70;;;;;;;;;;5024885;28;20060;-55
2024/01/27 07:36:49;;;;;;;13.30;1.33;;;;;;;;;;5029263;28;20359;-56
2024/01/27 07:39:14;;;;;;;10.95;1.30;;;;;;;;;;5025207;28;20513;-57
2024/01/27 07:41:39;;;;;;;6.70;1.40;;;;;;;;;;5014871;28;20059;-57
2024/01/27 07:44:08;;;;;;;6.93;1.30;;;;;;;;;;5027598;28;20048;-56
2024/01/27 07:46:34;;;;;;;11.15;1.35;;;;;;;;;;5024767;28;20516;-55
2024/01/27 07:49:02;;;;;;;14.82;1.45;;;;;;;;;;5031757;28;20025;-57
2024/01/27 07:51:27;;;;;;;12.80;1.23;;;;;;;;;;5028863;28;20545;-59
2024/01/27 07:53:53;;;;;;;14.73;1.70;;;;;;;;;;5026410;28;20190;-57
2024/01/27 07:56:18;;;;;;;9.55;1.52;;;;;;;;;;5025634;28;20459;-57
2024/01/27 07:58:43;;;;;;;13.40;2.60;;;;;;;;;;5027444;28;20023;-57
2024/01/27 08:01:08;;;;;;;10.95;1.50;;;;;;;;;;5031513;28;20439;-56
2024/01/27 08:03:33;;;;;;;9.40;1.30;;;;;;;;;;5026191;28;20466;-57
2024/01/27 08:05:59;;;;;;;8.93;1.10;;;;;;;;;;5033938;28;20060;-56
2024/01/27 08:08:24;;;;;;;9.27;1.42;;;;;;;;;;5032880;28;20780;-55
2024/01/27 08:10:49;;;;;;;13.60;1.63;;;;;;;;;;5032667;28;20032;-57
2024/01/27 08:13:15;;;;;;;14.48;1.83;;;;;;;;;;5027378;28;20410;-56
2024/01/27 08:15:40;;;;;;;13.80;1.63;;;;;;;;;;5030755;28;20030;-57
2024/01/27 08:18:05;;;;;;;10.25;1.40;;;;;;;;;;5023454;28;20025;-56
2024/01/27 08:20:30;;;;;;;8.98;1.33;;;;;;;;;;5034323;28;20488;-57
2024/01/27 08:22:55;;;;;;;7.38;1.35;;;;;;;;;;5037182;28;20033;-56
2024/01/27 08:25:20;;;;;;;8.27;1.23;;;;;;;;;;5041213;28;20037;-56
2024/01/27 08:27:45;;;;;;;10.10;1.30;;;;;;;;;;5047366;28;20025;-56
2024/01/27 08:30:11;;;;;;;10.95;1.60;;;;;;;;;;5042833;28;20072;-57
2024/01/27 08:32:36;;;;;;;13.65;1.15;;;;;;;;;;5034647;28;20033;-56
2024/01/27 08:35:01;;;;;;;11.67;1.43;;;;;;;;;;5033024;28;20551;-56
2024/01/27 08:37:27;;;;;;;10.80;1.23;;;;;;;;;;5034065;28;20456;-56
2024/01/27 08:39:52;;;;;;;6.10;1.20;;;;;;;;;;5042754;28;20045;-56
2024/01/27 08:42:17;;;;;;;12.20;1.80;;;;;;;;;;5030423;28;20448;-56
2024/01/27 08:44:42;;;;;;;16.70;1.40;;;;;;;;;;5040084;28;20022;-56
2024/01/27 08:47:07;;;;;;;10.68;1.60;;;;;;;;;;5042009;28;20108;-56
2024/01/27 08:49:33;;;;;;;14.60;1.80;;;;;;;;;;5033692;28;20041;-58
2024/01/27 08:51:58;;;;;;;8.00;1.33;;;;;;;;;;5039905;28;20065;-56
2024/01/27 08:54:23;;;;;;;9.73;1.33;;;;;;;;;;5026887;28;20112;-55
2024/01/27 08:56:48;;;;;;;12.05;2.03;;;;;;;;;;5023660;28;20021;-57
2024/01/27 08:59:13;;;;;;;9.90;1.30;;;;;;;;;;5024654;28;20536;-57
2024/01/27 09:01:39;;;;;;;10.30;1.40;;;;;;;;;;5028220;28;20044;-56
2024/01/27 09:04:04;;;;;;;12.00;1.50;;;;;;;;;;5036633;28;20485;-56
2024/01/27 09:06:29;;;;;;;11.83;1.87;;;;;;;;;;5031994;28;20026;-57
2024/01/27 09:08:54;;;;;;;9.70;1.40;;;;;;;;;;5031115;28;20025;-56
2024/01/27 09:11:21;;;;;;;10.15;1.30;;;;;;;;;;5031155;28;20087;-55
2024/01/27 09:13:48;;;;;;;14.43;1.65;;;;;;;;;;5031972;28;20096;-56
2024/01/27 09:16:14;;;;;;;10.15;1.55;;;;;;;;;;5031957;28;20152;-56
2024/01/27 09:18:39;;;;;;;10.00;1.63;;;;;;;;;;5030900;28;20092;-55
2024/01/27 09:21:04;;;;;;;11.50;1.83;;;;;;;;;;5028892;28;20485;-56
2024/01/27 09:23:29;;;;;;;11.63;1.58;;;;;;;;;;5039349;28;20020;-57
2024/01/27 09:25:55;;;;;;;14.03;1.60;;;;;;;;;;5030180;28;20072;-56
2024/01/27 09:28:20;;;;;;;10.67;1.43;;;;;;;;;;5029139;28;20025;-57
2024/01/27 09:30:45;;;;;;;11.83;1.43;;;;;;;;;;5026064;28;20017;-56
2024/01/27 09:33:10;;;;;;;7.82;1.60;;;;;;;;;;5031984;28;20160;-56
2024/01/27 09:35:35;;;;;;;12.50;1.60;;;;;;;;;;5027744;28;20025;-57
2024/01/27 09:38:00;;;;;;;16.80;1.40;;;;;;;;;;5027111;28;20367;-57
2024/01/27 09:40:26;;;;;;;10.55;1.42;;;;;;;;;;5035250;28;20034;-56
2024/01/27 09:42:52;;;;;;;16.35;1.90;;;;;;;;;;5024328;28;20025;-56
2024/01/27 09:45:18;;;;;;;10.63;1.52;;;;;;;;;;5029755;28;20017;-57
2024/01/27 09:47:44;;;;;;;17.13;1.92;;;;;;;;;;5031317;28;20092;-57
2024/01/27 09:50:11;;;;;;;13.55;1.88;;;;;;;;;;5028786;28;20498;-57
2024/01/27 09:52:36;;;;;;;9.30;1.50;;;;;;;;;;5030865;28;20049;-55
2024/01/27 09:55:01;;;;;;;8.90;1.40;;;;;;;;;;5031338;28;20524;-57
2024/01/27 09:57:27;;;;;;;17.87;2.77;;;;;;;;;;5030236;28;20437;-56
2024/01/27 09:59:52;;;;;;;13.38;2.00;;;;;;;;;;5031193;28;20036;-57
2024/01/27 10:02:18;;;;;;;13.03;2.27;;;;;;;;;;5027294;28;20036;-57
2024/01/27 10:04:44;;;;;;;12.25;2.45;;;;;;;;;;5021031;28;20026;-56
2024/01/27 10:07:09;;;;;;;11.60;2.03;;;;;;;;;;5031436;28;20024;-57
2024/01/27 10:09:34;;;;;;;13.60;1.70;;;;;;;;;;5029507;28;20385;-56
2024/01/27 10:12:01;;;;;;;10.70;1.80;;;;;;;;;;5032579;28;20076;-57
2024/01/27 10:14:26;;;;;;;14.13;1.95;;;;;;;;;;5023189;28;20022;-56
2024/01/27 10:16:51;;;;;;;12.98;1.65;;;;;;;;;;5027990;28;20570;-56
2024/01/27 10:19:17;;;;;;;18.90;2.00;;;;;;;;;;5031143;28;20025;-57
2024/01/27 10:21:42;;;;;;;11.70;1.95;;;;;;;;;;5031237;28;20040;-56
2024/01/27 10:24:09;;;;;;;11.30;1.40;;;;;;;;;;5040219;28;20037;-56
2024/01/27 10:26:35;;;;;;;;;;;;;;;;;;5041251;28;20030;-55
2024/01/27 10:29:01;;;;;;;11.50;1.60;;;;;;;;;;5032848;28;19963;-57
2024/01/27 10:31:30;;;;;;;11.25;1.85;;;;;;;;;;5036440;28;20566;-58
2024/01/27 10:34:03;;;;;;;15.93;2.08;;;;;;;;;;5039160;28;20123;-57
2024/01/27 10:36:39;;;;;;;10.38;1.88;;;;;;;;;;5025919;28;20113;-57
2024/01/27 10:39:13;;;;;;;10.48;1.77;;;;;;;;;;5030236;28;20017;-56
2024/01/27 10:41:39;;;;;;;9.57;1.83;;;;;;;;;;5030998;28;20025;-58
2024/01/27 10:44:05;;;;;;;16.08;2.15;;;;;;;;;;5034235;28;20438;-56
2024/01/27 10:46:30;;;;;;;10.88;1.95;;;;;;;;;;5031903;28;20033;-56
2024/01/27 10:48:56;;;;;;;12.55;1.58;;;;;;;;;;5028861;28;20032;-56
2024/01/27 10:51:31;;;;;;;12.23;1.83;;;;;;;;;;5027779;28;20091;-56
2024/01/27 10:54:00;;;;;;;11.45;1.75;;;;;;;;;;5031283;28;20020;-56
2024/01/27 10:56:26;;;;;;;14.48;1.77;;;;;;;;;;5030434;28;20373;-55
2024/01/27 10:58:52;;;;;;;14.00;2.00;;;;;;;;;;5029697;28;20068;-57
2024/01/27 11:01:19;;;;;;;10.83;1.77;;;;;;;;;;5030432;28;20025;-56
2024/01/27 11:03:44;;;;;;;13.02;2.08;;;;;;;;;;5024170;28;20429;-58
2024/01/27 11:06:11;;;;;;;12.13;1.80;;;;;;;;;;5031410;28;20395;-57
2024/01/27 11:08:37;;;;;;;11.82;1.67;;;;;;;;;;5031863;28;20036;-56
2024/01/27 11:11:03;;;;;;;12.93;2.50;;;;;;;;;;5020958;28;20525;-56
2024/01/27 11:13:29;;;;;;;15.52;2.33;;;;;;;;;;5032519;28;20026;-57
2024/01/27 11:15:55;;;;;;;9.55;2.10;;;;;;;;;;5034687;28;20020;-56
2024/01/27 11:18:20;;;;;;;12.75;2.08;;;;;;;;;;5033194;28;20022;-56
2024/01/27 11:20:45;;;;;;;11.37;2.03;;;;;;;;;;5029292;28;20029;-58
2024/01/27 11:23:13;;;;;;;13.93;1.87;;;;;;;;;;5036927;28;20786;-56
2024/01/27 11:25:38;;;;;;;9.73;2.00;;;;;;;;;;5031105;28;20018;-56
2024/01/27 11:28:11;;;;;;;13.23;2.78;;;;;;;;;;5040016;28;20071;-57
2024/01/27 11:30:39;;;;;;;12.15;2.25;;;;;;;;;;5033407;28;20029;-58
2024/01/27 11:33:04;;;;;;;12.15;1.70;;;;;;;;;;5039212;28;20017;-57
2024/01/27 11:35:30;;;;;;;10.45;2.05;;;;;;;;;;5033627;28;20923;-56
2024/01/27 11:37:55;;;;;;;15.07;1.90;;;;;;;;;;5033620;28;20013;-56
2024/01/27 11:40:20;;;;;;;11.50;2.03;;;;;;;;;;5032970;28;20033;-56
2024/01/27 11:42:58;;;;;;;14.47;2.00;;;;;;;;;;5033689;28;20021;-56
2024/01/27 11:45:23;;;;;;;15.52;2.22;;;;;;;;;;5038482;28;20032;-57
2024/01/27 11:47:49;;;;;;;10.60;1.80;;;;;;;;;;5034267;28;20014;-57
2024/01/27 11:50:16;;;;;;;13.05;1.98;;;;;;;;;;5033276;28;20120;-57
2024/01/27 11:52:41;;;;;;;9.70;1.90;;;;;;;;;;5033172;28;20022;-57
2024/01/27 11:55:06;;;;;;;12.63;2.00;;;;;;;;;;5033729;28;20017;-56
2024/01/27 11:57:32;;;;;;;10.43;2.10;;;;;;;;;;5033937;28;20396;-57
2024/01/27 11:59:57;;;;;;;11.98;2.10;;;;;;;;;;5034172;28;20021;-57
2024/01/27 12:02:22;;;;;;;12.50;2.33;;;;;;;;;;5033337;28;20493;-56
2024/01/27 12:04:48;;;;;;;9.10;1.70;;;;;;;;;;5037895;28;20401;-56
2024/01/27 12:07:14;;;;;;;17.50;1.92;;;;;;;;;;5037955;28;20512;-56
2024/01/27 12:09:39;;;;;;;10.05;1.80;;;;;;;;;;5031402;28;20711;-56
2024/01/27 12:12:04;;;;;;;10.63;1.85;;;;;;;;;;5035809;28;20071;-56
2024/01/27 12:14:44;;;;;;;9.55;1.70;;;;;;;;;;5030996;28;20045;-56
2024/01/27 12:17:10;;;;;;;15.50;2.30;;;;;;;;;;5033277;28;20109;-58
2024/01/27 12:19:35;;;;;;;11.65;1.95;;;;;;;;;;5031985;28;20041;-56
2024/01/27 12:22:00;;;;;;;14.93;2.20;;;;;;;;;;5029882;28;20159;-56
2024/01/27 12:24:25;;;;;;;13.18;2.15;;;;;;;;;;5034992;28;20026;-56
2024/01/27 12:26:51;;;;;;;12.02;2.10;;;;;;;;;;5040409;28;20030;-56
2024/01/27 12:29:16;;;;;;;9.10;1.55;;;;;;;;;;5041494;28;20083;-59
2024/01/27 12:31:41;;;;;;;10.05;1.70;;;;;;;;;;5044486;28;20040;-58
2024/01/27 12:34:07;;;;;;;11.77;2.53;;;;;;;;;;5036015;28;20034;-57
2024/01/27 12:36:32;;;;;;;10.80;1.90;;;;;;;;;;5024068;28;20020;-56
2024/01/27 12:38:58;;;;;;;13.37;1.83;;;;;;;;;;5022582;28;20116;-56
2024/01/27 12:41:24;;;;;;;10.50;1.75;;;;;;;;;;5014380;28;22051;-56
2024/01/27 12:43:49;;;;;;;12.45;1.88;;;;;;;;;;5021265;28;20024;-56
2024/01/27 12:46:16;;;;;;;12.23;1.63;;;;;;;;;;5020634;28;20021;-56
2024/01/27 12:48:41;;;;;;;8.85;1.85;;;;;;;;;;5029631;28;20022;-58
2024/01/27 12:51:06;;;;;;;9.97;2.00;;;;;;;;;;5029610;28;20322;-57
2024/01/27 12:53:32;;;;;;;10.63;1.63;;;;;;;;;;5031875;28;20486;-58
2024/01/27 12:55:57;;;;;;;11.23;1.90;;;;;;;;;;5031934;28;20036;-57
2024/01/27 12:58:22;;;;;;;14.60;1.80;;;;;;;;;;5030676;28;20025;-56
2024/01/27 13:00:47;;;;;;;14.73;2.00;;;;;;;;;;5028876;28;20018;-56
2024/01/27 13:03:12;;;;;;;11.33;1.77;;;;;;;;;;5027134;28;20021;-56
2024/01/27 13:05:38;;;;;;;11.00;1.57;;;;;;;;;;5028078;28;20032;-57
2024/01/27 13:08:04;;;;;;;13.10;2.00;;;;;;;;;;5032702;28;20100;-57
2024/01/27 13:10:29;;;;;;;10.77;1.95;;;;;;;;;;5029999;28;20635;-57
2024/01/27 13:12:55;;;;;;;11.60;1.67;;;;;;;;;;5028556;28;20030;-56
2024/01/27 13:15:21;;;;;;;11.55;1.73;;;;;;;;;;5029530;28;20028;-58
2024/01/27 13:17:47;;;;;;;8.88;1.60;;;;;;;;;;5032041;28;20018;-56
2024/01/27 13:20:12;;;;;;;12.60;2.10;;;;;;;;;;5031228;28;20047;-58
2024/01/27 13:22:37;;;;;;;12.10;1.67;;;;;;;;;;5028958;28;20060;-57
2024/01/27 13:25:04;;;;;;;13.05;2.85;;;;;;;;;;5031032;28;20420;-58
2024/01/27 13:27:29;;;;;;;13.05;2.22;;;;;;;;;;5021995;28;20030;-57
2024/01/27 13:29:54;;;;;;;10.73;1.83;;;;;;;;;;5029475;28;20025;-58
2024/01/27 13:32:19;;;;;;;10.20;2.03;;;;;;;;;;5031205;28;20018;-56
2024/01/27 13:34:45;;;;;;;14.23;1.75;;;;;;;;;;5030209;28;20018;-56
2024/01/27 13:37:10;;;;;;;7.90;1.52;;;;;;;;;;5026513;28;20084;-57
2024/01/27 13:39:35;;;;;;;9.98;1.42;;;;;;;;;;5033718;28;20039;-56
2024/01/27 13:42:00;;;;;;;9.57;1.40;;;;;;;;;;5034620;28;20043;-57
2024/01/27 13:44:26;;;;;;;12.43;2.00;;;;;;;;;;5029251;28;20028;-57
2024/01/27 13:46:51;;;;;;;10.17;1.70;;;;;;;;;;5028537;28;20372;-57
2024/01/27 13:49:16;;;;;;;8.82;1.80;;;;;;;;;;5027775;28;20025;-57
2024/01/27 13:51:41;;;;;;;12.83;1.90;;;;;;;;;;5027677;28;20025;-56
2024/01/27 13:54:09;;;;;;;11.90;1.42;;;;;;;;;;5027581;28;20036;-58
2024/01/27 13:56:34;;;;;;;10.60;1.63;;;;;;;;;;5028652;28;20079;-56
2024/01/27 13:58:59;;;;;;;10.93;1.50;;;;;;;;;;5024518;28;20031;-57
2024/01/27 14:01:24;;;;;;;9.73;1.57;;;;;;;;;;5022987;28;20044;-57
2024/01/27 14:03:49;;;;;;;13.20;1.70;;;;;;;;;;5027548;28;20097;-57
2024/01/27 14:06:15;;;;;;;10.82;1.60;;;;;;;;;;5026364;28;20040;-56
2024/01/27 14:08:40;;;;;;;9.77;1.77;;;;;;;;;;5025826;28;20061;-59
2024/01/27 14:11:05;;;;;;;11.20;1.70;;;;;;;;;;5024243;28;20504;-57
2024/01/27 14:13:30;;;;;;;11.40;1.70;;;;;;;;;;5025578;28;20029;-56
2024/01/27 14:15:56;;;;;;;10.63;1.50;;;;;;;;;;5024575;28;20422;-56
2024/01/27 14:18:21;;;;;;;12.63;1.93;;;;;;;;;;5027176;28;20112;-56
2024/01/27 14:20:46;;;;;;;15.25;1.95;;;;;;;;;;5027893;28;20036;-57
2024/01/27 14:23:12;;;;;;;10.30;1.75;;;;;;;;;;5030755;28;20120;-57
2024/01/27 14:25:37;;;;;;;9.27;1.60;;;;;;;;;;5030257;28;20056;-56